Time;durP1;ratioP1;P1;durP2;ratioP2;P2;SDS_P1;SDS_P2;PMS_P1;PMS_P2;Temp;Humidity;BMP_temperature;BMP_pressure;BME280_temperature;BME280_humidity;BME280_pressure;Samples;Min_cycle;Max_cycle;Signal;HPM_P1;HPM_P2
2021/12/26 00:00:00;;;;;;;;;;;;;;;2.43;59.30;99221.63;4427674;32;20000;-89
2021/12/26 00:02:25;;;;;;;;;;;;;;;2.26;59.30;99226.88;4427381;32;19997;-88
2021/12/26 00:04:50;;;;;;;;;;;;;;;2.23;59.30;99219.19;4427162;32;20014;-89
2021/12/26 00:07:16;;;;;;;;;;;;;;;2.30;59.31;99222.56;4427289;32;19993;-90
2021/12/26 00:09:43;;;;;;;;;;;;;;;2.17;59.29;99223.50;4427031;32;20049;-89
2021/12/26 00:12:09;;;;;;;;;;;;;;;1.98;59.29;99226.19;4427852;32;19989;-89
2021/12/26 00:14:34;;;;;;;;;;;;;;;2.27;59.30;99217.44;4427327;32;20023;-89
2021/12/26 00:16:59;;;;;;;;;;;;;;;2.17;59.30;99210.69;4427262;32;20027;-89
2021/12/26 00:19:28;;;;;;;;;;;;;;;2.03;59.29;99219.31;4426985;32;20312;-90
2021/12/26 00:21:53;;;;;;;;;;;;;;;2.00;59.29;99219.34;4427569;32;20015;-89
2021/12/26 00:24:19;;;;;;;;;;;;;;;2.10;59.29;99220.97;4427349;32;19993;-87
2021/12/26 00:26:44;;;;;;;;;;;;;;;1.93;59.29;99227.94;4427205;32;19992;-88
2021/12/26 00:29:12;;;;;;;;;;;;;;;2.07;59.29;99231.25;4427276;32;20170;-87
2021/12/26 00:31:37;;;;;;;;;;;;;;;2.09;59.29;99233.81;4414568;32;19972;-90
2021/12/26 00:34:03;;;;;;;;;;;;;;;2.20;59.29;99216.63;4427216;32;20338;-87
2021/12/26 00:36:28;;;;;;;;;;;;;;;2.27;59.29;99218.28;4426778;32;19995;-86
2021/12/26 00:38:53;;;;;;;;;;;;;;;2.52;59.32;99218.97;4425841;32;20240;-87
2021/12/26 00:41:21;;;;;;;;;;;;;;;2.39;59.31;99227.62;4426355;32;20001;-86
2021/12/26 00:43:46;;;;;;;;;;;;;;;2.65;59.33;99225.72;4427237;32;19978;-89
2021/12/26 00:46:12;;;;;;;;;;;;;;;2.56;59.32;99225.78;4427159;32;20004;-88
2021/12/26 00:48:41;;;;;;;;;;;;;;;2.51;59.32;99218.97;4425971;32;20307;-89
2021/12/26 00:51:06;;;;;;;;;;;;;;;2.56;59.32;99220.62;4427258;32;20642;-89
2021/12/26 00:53:33;;;;;;;;;;;;;;;2.47;59.31;99220.72;4426550;32;19997;-88
2021/12/26 00:56:01;;;;;;;;;;;;;;;2.43;59.30;99221.63;4426838;32;20030;-88
2021/12/26 00:58:26;;;;;;;;;;;;;;;2.52;59.31;99231.81;4426696;32;20012;-88
2021/12/26 01:00:52;;;;;;;;;;;;;;;2.53;59.32;99228.38;4426667;32;20002;-88
2021/12/26 01:03:17;;;;;;;;;;;;;;;2.44;59.32;99229.31;4426601;32;19979;-88
2021/12/26 01:05:47;;;;;;;;;;;;;;;2.36;59.31;99227.62;4426542;32;19997;-88
2021/12/26 01:08:13;;;;;;;;;;;;;;;2.28;59.31;99232.84;4426803;32;19981;-89
2021/12/26 01:10:49;;;;;;;;;;;;;;;2.21;59.29;99240.59;4413611;32;20015;-87
2021/12/26 01:13:19;;;;;;;;;;;;;;;2.30;59.30;99235.41;4426383;32;20031;-89
2021/12/26 01:15:45;;;;;;;;;;;;;;;2.36;59.31;99233.63;4426541;32;20384;-88
2021/12/26 01:18:10;;;;;;;;;;;;;;;2.37;59.31;99237.06;4426735;32;20033;-88
2021/12/26 01:21:19;;;;;;;;;;;;;;;1.99;59.29;99240.72;4426222;32;20039;-87
2021/12/26 01:23:24;;;;;;;;;;;;;;;2.05;59.28;99247.53;4435216;32;20031;-87
2021/12/26 01:25:49;;;;;;;;;;;;;;;2.15;59.29;99244.91;4426644;32;20047;-89
2021/12/26 01:28:15;;;;;;;;;;;;;;;2.24;59.30;99249.13;4426707;32;19990;-88
2021/12/26 01:30:41;;;;;;;;;;;;;;;2.35;59.30;99249.03;4426602;32;20001;-89
2021/12/26 01:33:07;;;;;;;;;;;;;;;2.43;59.32;99252.44;4426439;32;21186;-88
2021/12/26 01:35:32;;;;;;;;;;;;;;;2.42;59.32;99254.16;4426484;32;20000;-88
2021/12/26 01:37:58;;;;;;;;;;;;;;;2.38;59.31;99247.34;4426400;32;22707;-89
2021/12/26 01:40:23;;;;;;;;;;;;;;;2.20;59.29;99257.72;4426010;32;20399;-90
2021/12/26 01:42:48;;;;;;;;;;;;;;;1.98;59.28;99256.13;4426329;32;19993;-89
2021/12/26 01:45:13;;;;;;;;;;;;;;;2.04;59.29;99251.81;4426493;32;20272;-89
2021/12/26 01:47:39;;;;;;;;;;;;;;;2.31;59.30;99245.66;4439121;32;20004;-89
2021/12/26 01:50:04;;;;;;;;;;;;;;;2.31;59.31;99252.50;4426023;32;20037;-89
2021/12/26 01:52:29;;;;;;;;;;;;;;;2.26;59.30;99242.28;4425853;32;20015;-86
2021/12/26 01:55:20;;;;;;;;;;;;;;;2.41;59.30;99246.47;4426056;32;19982;-87
2021/12/26 01:57:45;;;;;;;;;;;;;;;2.36;59.31;99254.16;4426009;32;19962;-87
2021/12/26 02:00:11;;;;;;;;;;;;;;;2.08;59.29;99248.38;4426062;32;20771;-88
2021/12/26 02:02:36;;;;;;;;;;;;;;;2.30;59.31;99238.81;4428065;32;19977;-86
2021/12/26 02:05:01;;;;;;;;;;;;;;;2.37;59.31;99242.22;4427912;32;20000;-88
2021/12/26 02:07:27;;;;;;;;;;;;;;;2.34;59.30;99237.06;4428282;32;20015;-89
2021/12/26 02:09:52;;;;;;;;;;;;;;;2.50;59.32;99233.53;4428471;32;20017;-88
2021/12/26 02:12:17;;;;;;;;;;;;;;;2.36;59.31;99243.03;4428064;32;20797;-88
2021/12/26 02:14:42;;;;;;;;;;;;;;;2.31;59.31;99231.97;4427800;32;20023;-88
2021/12/26 02:17:07;;;;;;;;;;;;;;;2.44;59.32;99237.00;4428074;32;20008;-88
2021/12/26 02:19:33;;;;;;;;;;;;;;;2.36;59.31;99235.34;4428275;32;20024;-88
2021/12/26 02:22:09;;;;;;;;;;;;;;;2.34;59.30;99235.34;4428058;32;20278;-87
2021/12/26 02:27:32;;;;;;;;;;;;;;;2.46;59.31;99235.28;4429439;32;19985;-88
2021/12/26 02:30:00;;;;;;;;;;;;;;;2.53;59.32;99236.06;4429638;32;20008;-87
2021/12/26 02:32:26;;;;;;;;;;;;;;;2.42;59.30;99243.03;4427898;32;19982;-87
2021/12/26 02:34:51;;;;;;;;;;;;;;;2.47;59.31;99247.25;4427688;32;20365;-87
2021/12/26 02:37:16;;;;;;;;;;;;;;;2.44;59.31;99237.00;4427746;32;20001;-87
2021/12/26 02:39:41;;;;;;;;;;;;;;;2.47;59.31;99246.41;4427873;32;20025;-87
2021/12/26 02:42:07;;;;;;;;;;;;;;;2.52;59.32;99244.66;4427668;32;19977;-87
2021/12/26 02:44:32;;;;;;;;;;;;;;;2.68;59.32;99246.25;4427715;32;19995;-87
2021/12/26 02:46:57;;;;;;;;;;;;;;;2.77;59.33;99245.28;4427717;32;19990;-87
2021/12/26 02:49:26;;;;;;;;;;;;;;;2.90;59.34;99238.34;4427514;32;19982;-86
2021/12/26 02:51:51;;;;;;;;;;;;;;;2.91;59.34;99245.19;4427738;32;19997;-87
2021/12/26 02:54:16;;;;;;;;;;;;;;;2.99;59.34;99245.97;4427650;32;19973;-87
2021/12/26 02:56:42;;;;;;;;;;;;;;;2.96;59.34;99244.28;4427843;32;20365;-88
2021/12/26 02:59:07;;;;;;;;;;;;;;;2.87;59.33;99243.50;4427739;32;19994;-87
2021/12/26 03:01:32;;;;;;;;;;;;;;;3.10;59.36;99238.16;4427374;32;20009;-87
2021/12/26 03:03:59;;;;;;;;;;;;;;;3.20;59.35;99240.59;4427467;32;20319;-86
2021/12/26 03:07:07;;;;;;;;;;;;;;;3.21;59.35;99247.44;4427701;32;20031;-87
2021/12/26 03:09:13;;;;;;;;;;;;;;;3.28;59.36;99254.22;4427960;32;20285;-86
2021/12/26 03:11:39;;;;;;;;;;;;;;;3.07;59.35;99250.16;4426656;32;20015;-88
2021/12/26 03:14:05;;;;;;;;;;;;;;;2.97;59.35;99252.84;4427677;32;19954;-86
2021/12/26 03:16:30;;;;;;;;;;;;;;;3.22;59.35;99249.16;4427554;32;20012;-86
2021/12/26 03:18:59;;;;;;;;;;;;;;;3.17;59.34;99250.94;4427584;32;19993;-86
2021/12/26 03:21:24;;;;;;;;;;;;;;;3.06;59.34;99245.03;4427131;32;19987;-86
2021/12/26 03:23:49;;;;;;;;;;;;;;;3.12;59.35;99242.41;4427650;32;20013;-87
2021/12/26 03:26:14;;;;;;;;;;;;;;;3.23;59.35;99250.00;4427577;32;20266;-87
2021/12/26 03:28:40;;;;;;;;;;;;;;;3.25;59.36;99253.41;4427544;32;20043;-87
2021/12/26 03:31:05;;;;;;;;;;;;;;;3.26;59.36;99244.81;4427262;32;19993;-86
2021/12/26 03:33:30;;;;;;;;;;;;;;;3.43;59.36;99248.06;4427265;32;20342;-88
2021/12/26 03:35:55;;;;;;;;;;;;;;;3.42;59.36;99241.22;4427785;32;20303;-88
2021/12/26 03:38:21;;;;;;;;;;;;;;;3.41;59.37;99233.53;4427693;32;20004;-86
2021/12/26 03:40:47;;;;;;;;;;;;;;;3.50;59.37;99234.25;4427533;32;20007;-86
2021/12/26 03:43:12;;;;;;;;;;;;;;;3.64;59.38;99234.09;4427442;32;20022;-86
2021/12/26 03:45:38;;;;;;;;;;;;;;;3.55;59.37;99237.66;4427313;32;20020;-86
2021/12/26 03:48:03;;;;;;;;;;;;;;;3.80;59.38;99233.06;4426946;32;20017;-85
2021/12/26 03:50:30;;;;;;;;;;;;;;;3.58;59.37;99236.75;4427145;32;19969;-87
2021/12/26 03:53:01;;;;;;;;;;;;;;;3.48;59.37;99224.84;4427507;32;20065;-88
2021/12/26 03:55:26;;;;;;;;;;;;;;;3.67;59.37;99222.03;4428212;32;20338;-86
2021/12/26 03:57:52;;;;;;;;;;;;;;;3.70;59.38;99232.28;4427116;32;20068;-88
2021/12/26 04:00:17;;;;;;;;;;;;;;;3.78;59.39;99227.03;4427564;32;19984;-88
2021/12/26 04:02:43;;;;;;;;;;;;;;;3.72;59.39;99229.69;4427372;32;20001;-89
2021/12/26 04:05:08;;;;;;;;;;;;;;;3.41;59.37;99230.94;4427389;32;20353;-90
2021/12/26 04:07:33;;;;;;;;;;;;;;;3.68;59.37;99225.47;4414902;32;20001;-89
2021/12/26 04:09:59;;;;;;;;;;;;;;;3.55;59.37;99227.34;4427211;32;20001;-89
2021/12/26 04:12:24;;;;;;;;;;;;;;;3.70;59.38;99228.88;4427562;32;19997;-89
2021/12/26 04:14:49;;;;;;;;;;;;;;;3.63;59.38;99228.09;4427258;32;20004;-88
2021/12/26 04:17:14;;;;;;;;;;;;;;;3.52;59.37;99227.38;4427744;32;20040;-89
2021/12/26 04:19:40;;;;;;;;;;;;;;;3.69;59.38;99227.16;4427376;32;20027;-88
2021/12/26 04:22:08;;;;;;;;;;;;;;;3.58;59.37;99231.63;4427409;32;20270;-88
2021/12/26 04:24:33;;;;;;;;;;;;;;;3.51;59.37;99232.53;4426644;32;20669;-89
2021/12/26 04:26:58;;;;;;;;;;;;;;;3.61;59.38;99235.00;4427529;32;20007;-88
2021/12/26 04:29:23;;;;;;;;;;;;;;;3.81;59.38;99228.75;4427088;32;20278;-88
2021/12/26 04:31:49;;;;;;;;;;;;;;;3.75;59.38;99242.53;4427139;32;19993;-88
2021/12/26 04:34:14;;;;;;;;;;;;;;;3.86;59.39;99232.09;4426378;32;19985;-88
2021/12/26 04:36:39;;;;;;;;;;;;;;;3.76;59.39;99241.66;4427429;32;19994;-88
2021/12/26 04:39:04;;;;;;;;;;;;;;;3.93;59.39;99252.59;4427327;32;19973;-88
2021/12/26 04:41:30;;;;;;;;;;;;;;;3.89;59.39;99260.38;4427387;32;20013;-88
2021/12/26 04:43:55;;;;;;;;;;;;;;;3.81;59.38;99262.22;4426723;32;20298;-88
2021/12/26 04:46:20;;;;;;;;;;;;;;;3.92;59.40;99262.91;4427178;32;20007;-88
2021/12/26 04:48:45;;;;;;;;;;;;;;;3.78;59.39;99260.50;4427153;32;19977;-88
2021/12/26 04:51:11;;;;;;;;;;;;;;;3.70;59.39;99259.75;4426782;32;20012;-87
2021/12/26 04:53:37;;;;;;;;;;;;;;;3.68;59.38;99264.94;4427128;32;20008;-88
2021/12/26 04:56:02;;;;;;;;;;;;;;;3.47;59.37;99269.47;4427004;32;19997;-88
2021/12/26 04:58:28;;;;;;;;;;;;;;;3.68;59.37;99276.94;4426875;32;19981;-89
2021/12/26 05:00:53;;;;;;;;;;;;;;;3.68;59.38;99272.66;4427119;32;19977;-89
2021/12/26 05:03:18;;;;;;;;;;;;;;;3.80;59.39;99273.38;4425804;32;20024;-89
2021/12/26 05:05:44;;;;;;;;;;;;;;;3.62;59.38;99274.44;4426225;32;20722;-89
2021/12/26 05:08:09;;;;;;;;;;;;;;;3.61;59.38;99271.03;4426971;32;19990;-89
2021/12/26 05:10:35;;;;;;;;;;;;;;;3.55;59.37;99271.09;4426395;32;19983;-88
2021/12/26 05:13:01;;;;;;;;;;;;;;;3.68;59.37;99282.09;4426767;32;20025;-88
2021/12/26 05:15:26;;;;;;;;;;;;;;;3.64;59.38;99281.28;4426242;32;20333;-86
2021/12/26 05:17:51;;;;;;;;;;;;;;;3.51;59.37;99284.00;4425980;32;19987;-86
2021/12/26 05:20:20;;;;;;;;;;;;;;;3.43;59.36;99288.38;4426148;32;19969;-86
2021/12/26 05:22:45;;;;;;;;;;;;;;;3.46;59.36;99298.63;4426745;32;20053;-89
2021/12/26 05:25:11;;;;;;;;;;;;;;;3.46;59.37;99299.50;4426522;32;20009;-87
2021/12/26 05:27:36;;;;;;;;;;;;;;;3.34;59.36;99307.34;4426370;32;20016;-87
2021/12/26 05:30:02;;;;;;;;;;;;;;;3.18;59.35;99301.50;4426427;32;19993;-86
2021/12/26 05:32:27;;;;;;;;;;;;;;;3.34;59.36;99303.06;4425878;32;20311;-86
2021/12/26 05:34:52;;;;;;;;;;;;;;;3.24;59.35;99313.44;4425656;32;19993;-86
2021/12/26 05:37:17;;;;;;;;;;;;;;;3.24;59.35;99310.84;4428295;32;19981;-87
2021/12/26 05:39:43;;;;;;;;;;;;;;;3.23;59.35;99320.28;4427414;32;20011;-87
2021/12/26 05:42:10;;;;;;;;;;;;;;;3.49;59.37;99319.19;4427708;32;20008;-87
2021/12/26 05:44:35;;;;;;;;;;;;;;;3.51;59.37;99313.16;4428314;32;19997;-87
2021/12/26 05:47:01;;;;;;;;;;;;;;;3.12;59.35;99313.56;4428221;32;19999;-88
2021/12/26 05:49:27;;;;;;;;;;;;;;;3.33;59.36;99324.50;4428103;32;19977;-87
2021/12/26 05:51:52;;;;;;;;;;;;;;;3.20;59.35;99322.03;4428452;32;19989;-87
2021/12/26 05:54:18;;;;;;;;;;;;;;;3.06;59.34;99328.16;4427743;32;20005;-87
2021/12/26 05:56:43;;;;;;;;;;;;;;;3.18;59.35;99328.94;4428144;32;19989;-87
2021/12/26 05:59:08;;;;;;;;;;;;;;;3.17;59.34;99327.22;4428395;32;19982;-87
2021/12/26 06:01:33;;;;;;;;;;;;;;;3.18;59.35;99334.94;4428165;32;20119;-87
2021/12/26 06:03:59;;;;;;;;;;;;;;;3.44;59.37;99331.25;4428047;32;20024;-91
2021/12/26 06:06:24;;;;;;;;;;;;;;;3.38;59.36;99333.03;4428076;32;20008;-89
2021/12/26 06:08:49;;;;;;;;;;;;;;;3.42;59.37;99338.13;4427884;32;19977;-87
2021/12/26 06:11:14;;;;;;;;;;;;;;;3.35;59.36;99339.91;4427545;32;20362;-88
2021/12/26 06:13:40;;;;;;;;;;;;;;;3.15;59.35;99344.38;4427862;32;20047;-88
2021/12/26 06:16:05;;;;;;;;;;;;;;;3.29;59.35;99347.66;4427807;32;19998;-89
2021/12/26 06:18:30;;;;;;;;;;;;;;;3.46;59.37;99353.53;4427813;32;20036;-88
2021/12/26 06:20:55;;;;;;;;;;;;;;;3.54;59.38;99350.88;4428154;32;20008;-88
2021/12/26 06:23:21;;;;;;;;;;;;;;;3.44;59.36;99346.69;4427813;32;20392;-89
2021/12/26 06:25:46;;;;;;;;;;;;;;;3.47;59.37;99355.22;4428024;32;19992;-90
2021/12/26 06:28:11;;;;;;;;;;;;;;;3.45;59.36;99356.97;4428016;32;19981;-90
2021/12/26 06:30:36;;;;;;;;;;;;;;;3.69;59.38;99359.28;4427940;32;20051;-88
2021/12/26 06:33:01;;;;;;;;;;;;;;;3.57;59.37;99359.44;4428050;32;20164;-88
2021/12/26 06:35:27;;;;;;;;;;;;;;;3.42;59.36;99364.72;4427674;32;19977;-86
2021/12/26 06:37:52;;;;;;;;;;;;;;;3.28;59.35;99362.25;4427813;32;19984;-90
2021/12/26 06:40:17;;;;;;;;;;;;;;;3.33;59.36;99364.81;4428191;32;20080;-90
2021/12/26 06:42:44;;;;;;;;;;;;;;;3.31;59.36;99367.41;4428147;32;20240;-90
2021/12/26 06:45:11;;;;;;;;;;;;;;;3.30;59.35;99364.81;4428181;32;19976;-90
2021/12/26 06:47:36;;;;;;;;;;;;;;;3.52;59.37;99368.87;4427387;32;19993;-90
2021/12/26 06:50:02;;;;;;;;;;;;;;;3.31;59.35;99381.94;4427181;32;19998;-90
2021/12/26 06:52:27;;;;;;;;;;;;;;;3.44;59.36;99378.41;4427857;32;20039;-91
2021/12/26 06:54:53;;;;;;;;;;;;;;;3.50;59.37;99380.91;4427815;32;19981;-90
2021/12/26 06:57:18;;;;;;;;;;;;;;;3.52;59.37;99381.75;4428256;32;19997;-91
2021/12/26 06:59:43;;;;;;;;;;;;;;;3.56;59.37;99385.19;4427704;32;20488;-90
2021/12/26 07:02:08;;;;;;;;;;;;;;;3.44;59.36;99382.72;4427956;32;20012;-91
2021/12/26 07:04:34;;;;;;;;;;;;;;;3.49;59.37;99380.94;4427913;32;19992;-90
2021/12/26 07:06:59;;;;;;;;;;;;;;;3.53;59.38;99386.03;4427800;32;19996;-89
2021/12/26 07:09:24;;;;;;;;;;;;;;;3.46;59.36;99388.69;4427396;32;20045;-89
2021/12/26 07:11:50;;;;;;;;;;;;;;;3.58;59.37;99392.00;4427530;32;20362;-90
2021/12/26 07:14:15;;;;;;;;;;;;;;;3.69;59.38;99391.91;4427844;32;20022;-89
2021/12/26 07:16:40;;;;;;;;;;;;;;;3.38;59.36;99394.75;4427733;32;19984;-90
2021/12/26 07:19:06;;;;;;;;;;;;;;;3.43;59.36;99389.56;4427463;32;20024;-91
2021/12/26 07:21:31;;;;;;;;;;;;;;;3.53;59.38;99396.31;4427432;32;20043;-91
2021/12/26 07:23:56;;;;;;;;;;;;;;;3.70;59.38;99401.31;4427674;32;20239;-90
2021/12/26 07:26:24;;;;;;;;;;;;;;;3.87;59.38;99398.59;4427488;32;19981;-91
2021/12/26 07:28:49;;;;;;;;;;;;;;;3.95;59.39;99401.91;4427851;32;20048;-90
2021/12/26 07:31:14;;;;;;;;;;;;;;;4.03;59.40;99399.28;4427574;32;19986;-88
2021/12/26 07:33:40;;;;;;;;;;;;;;;3.92;59.40;99402.81;4427537;32;19982;-89
2021/12/26 07:36:05;;;;;;;;;;;;;;;3.95;59.39;99402.78;4427452;32;20331;-92
2021/12/26 07:38:31;;;;;;;;;;;;;;;3.93;59.39;99408.81;4427649;32;20001;-89
2021/12/26 07:40:56;;;;;;;;;;;;;;;3.89;59.39;99410.56;4427458;32;20320;-89
2021/12/26 07:43:21;;;;;;;;;;;;;;;3.78;59.39;99404.66;4426301;32;19966;-88
2021/12/26 07:45:46;;;;;;;;;;;;;;;3.85;59.39;99402.91;4427009;32;19981;-89
2021/12/26 07:48:12;;;;;;;;;;;;;;;3.90;59.39;99403.69;4426070;32;20311;-86
2021/12/26 07:50:37;;;;;;;;;;;;;;;3.93;59.39;99409.66;4426264;32;20004;-87
2021/12/26 07:53:08;;;;;;;;;;;;;;;4.23;59.41;99408.47;4426409;32;19974;-86
2021/12/26 07:55:33;;;;;;;;;;;;;;;4.22;59.41;99414.47;4427171;32;20012;-86
2021/12/26 07:57:58;;;;;;;;;;;;;;;4.31;59.42;99413.53;4426043;32;20009;-85
2021/12/26 08:00:24;;;;;;;;;;;;;;;4.06;59.41;99418.12;4426401;32;20009;-87
2021/12/26 08:02:49;;;;;;;;;;;;;;;4.32;59.41;99422.97;4426388;32;19992;-86
2021/12/26 08:05:15;;;;;;;;;;;;;;;4.53;59.43;99420.13;4426723;32;20051;-87
2021/12/26 08:07:40;;;;;;;;;;;;;;;4.70;59.44;99419.03;4426579;32;19985;-87
2021/12/26 08:10:05;;;;;;;;;;;;;;;4.54;59.43;99411.53;4425900;32;20295;-83
2021/12/26 08:12:31;;;;;;;;;;;;;;;4.45;59.42;99410.78;4425633;32;19993;-86
2021/12/26 08:14:56;;;;;;;;;;;;;;;4.57;59.43;99419.22;4426744;32;20516;-89
2021/12/26 08:17:21;;;;;;;;;;;;;;;4.46;59.42;99408.19;4427509;32;19985;-89
2021/12/26 08:19:47;;;;;;;;;;;;;;;4.26;59.41;99399.87;4426951;32;20349;-88
2021/12/26 08:22:12;;;;;;;;;;;;;;;4.39;59.42;99410.84;4426410;32;19991;-86
2021/12/26 08:24:37;;;;;;;;;;;;;;;4.66;59.44;99412.22;4426321;32;20005;-86
2021/12/26 08:27:03;;;;;;;;;;;;;;;4.77;59.44;99410.38;4426011;32;19986;-86
2021/12/26 08:29:28;;;;;;;;;;;;;;;4.74;59.44;99413.00;4426292;32;19994;-84
2021/12/26 08:31:55;;;;;;;;;;;;;;;4.65;59.44;99416.53;4426321;32;20046;-87
2021/12/26 08:34:22;;;;;;;;;;;;;;;4.77;59.44;99413.78;4426588;32;20066;-85
2021/12/26 08:36:48;;;;;;;;;;;;;;;4.66;59.44;99410.50;4426254;32;19962;-86
2021/12/26 08:39:14;;;;;;;;;;;;;;;4.93;59.45;99417.00;4426246;32;20005;-87
2021/12/26 08:41:39;;;;;;;;;;;;;;;5.00;59.45;99426.38;4425471;32;20026;-87
2021/12/26 08:44:04;;;;;;;;;;;;;;;4.78;59.44;99435.28;4426455;32;20000;-87
2021/12/26 08:46:29;;;;;;;;;;;;;;;4.97;59.45;99430.69;4426369;32;19986;-88
2021/12/26 08:48:55;;;;;;;;;;;;;;;4.88;59.45;99437.69;4426536;32;20050;-88
2021/12/26 08:51:20;;;;;;;;;;;;;;;4.92;59.45;99438.50;4426728;32;20009;-88
2021/12/26 08:53:45;;;;;;;;;;;;;;;4.98;59.45;99433.28;4426051;32;20008;-88
2021/12/26 08:56:10;;;;;;;;;;;;;;;5.09;59.46;99425.38;4426731;32;20085;-87
2021/12/26 08:58:36;;;;;;;;;;;;;;;5.28;59.47;99424.22;4426670;32;19993;-88
2021/12/26 09:01:01;;;;;;;;;;;;;;;5.10;59.46;99419.31;4426628;32;20243;-87
2021/12/26 09:03:26;;;;;;;;;;;;;;;5.05;59.46;99421.13;4426365;32;20025;-88
2021/12/26 09:05:52;;;;;;;;;;;;;;;5.17;59.47;99421.78;4426462;32;20263;-87
2021/12/26 09:08:17;;;;;;;;;;;;;;;5.13;59.46;99420.13;4426534;32;19993;-87
2021/12/26 09:10:43;;;;;;;;;;;;;;;4.79;59.45;99421.50;4427501;32;20022;-87
2021/12/26 09:13:08;;;;;;;;;;;;;;;4.98;59.45;99404.91;4428408;32;20017;-87
2021/12/26 09:15:33;;;;;;;;;;;;;;;4.89;59.45;99403.28;4428551;32;20551;-87
2021/12/26 09:17:59;;;;;;;;;;;;;;;4.91;59.45;99411.00;4428343;32;19998;-87
2021/12/26 09:20:25;;;;;;;;;;;;;;;5.06;59.46;99405.63;4428471;32;20259;-87
2021/12/26 09:22:50;;;;;;;;;;;;;;;4.94;59.46;99404.06;4428135;32;20058;-88
2021/12/26 09:25:15;;;;;;;;;;;;;;;4.93;59.45;99409.25;4427853;32;19996;-86
2021/12/26 09:27:41;;;;;;;;;;;;;;;5.07;59.46;99404.75;4428028;32;20416;-87
2021/12/26 09:30:06;;;;;;;;;;;;;;;4.90;59.45;99406.72;4428125;32;20021;-86
2021/12/26 09:32:32;;;;;;;;;;;;;;;4.60;59.43;99408.88;4427542;32;19977;-87
2021/12/26 09:34:57;;;;;;;;;;;;;;;4.83;59.44;99403.38;4428612;32;19982;-86
2021/12/26 09:37:22;;;;;;;;;;;;;;;4.78;59.44;99399.19;4427880;32;20015;-88
2021/12/26 09:39:48;;;;;;;;;;;;;;;4.87;59.45;99399.87;4428438;32;19994;-88
2021/12/26 09:42:13;;;;;;;;;;;;;;;4.72;59.43;99404.41;4428284;32;19993;-88
2021/12/26 09:44:38;;;;;;;;;;;;;;;4.94;59.46;99403.22;4427820;32;20399;-86
2021/12/26 09:47:05;;;;;;;;;;;;;;;5.04;59.46;99402.22;4427984;32;20046;-88
2021/12/26 09:49:30;;;;;;;;;;;;;;;5.02;59.46;99406.56;4427904;32;19983;-87
2021/12/26 09:51:55;;;;;;;;;;;;;;;5.07;59.46;99409.91;4427380;32;19977;-86
2021/12/26 09:54:21;;;;;;;;;;;;;;;5.09;59.46;99394.41;4427463;32;20001;-88
2021/12/26 09:56:46;;;;;;;;;;;;;;;5.28;59.47;99395.81;4428236;32;20319;-85
2021/12/26 09:59:14;;;;;;;;;;;;;;;5.40;59.48;99384.44;4427935;32;20401;-88
2021/12/26 10:01:41;;;;;;;;;;;;;;;5.57;59.49;99381.56;4440937;32;19981;-87
2021/12/26 10:04:16;;;;;;;;;;;;;;;5.57;59.49;99386.72;4428088;32;20004;-88
2021/12/26 10:06:42;;;;;;;;;;;;;;;5.62;59.49;99382.34;4427832;32;20001;-88
2021/12/26 10:09:10;;;;;;;;;;;;;;;5.53;59.49;99384.22;4428160;32;20039;-88
2021/12/26 10:11:37;;;;;;;;;;;;;;;5.69;59.50;99374.47;4428003;32;20548;-88
2021/12/26 10:14:07;;;;;;;;;;;;;;;5.69;59.50;99382.22;4428089;32;19993;-89
2021/12/26 10:16:35;;;;;;;;;;;;;;;5.75;59.49;99384.69;4427665;32;20660;-87
2021/12/26 10:19:03;;;;;;;;;;;;;;;5.59;59.49;99380.66;4427649;32;19977;-88
2021/12/26 10:21:33;;;;;;;;;;;;;;;5.81;59.50;99375.97;4426928;32;19982;-87
2021/12/26 10:24:11;;;;;;;;;;;;;;;5.83;59.51;99375.03;4428044;32;19986;-88
2021/12/26 10:26:38;;;;;;;;;;;;;;;5.83;59.50;99369.03;4440857;32;19997;-88
2021/12/26 10:29:16;;;;;;;;;;;;;;;6.02;59.51;99379.91;4428075;32;20001;-89
2021/12/26 10:31:43;;;;;;;;;;;;;;;5.98;59.51;99373.94;4428039;32;20040;-89
2021/12/26 10:34:13;;;;;;;;;;;;;;;5.98;59.50;99367.94;4428372;32;19973;-89
2021/12/26 10:36:42;;;;;;;;;;;;;;;6.06;59.51;99366.88;4428294;32;20054;-89
2021/12/26 10:39:15;;;;;;;;;;;;;;;6.26;59.52;99370.81;4428118;32;20330;-89
2021/12/26 10:41:47;;;;;;;;;;;;;;;6.00;59.52;99354.09;4415786;32;20000;-89
2021/12/26 10:44:22;;;;;;;;;;;;;;;6.06;59.52;99359.13;4428164;32;20635;-89
2021/12/26 10:46:48;;;;;;;;;;;;;;;6.19;59.52;99353.72;4440797;32;20001;-89
2021/12/26 10:49:40;;;;;;;;;;;;;;;6.07;59.52;99358.25;4427837;32;19977;-88
2021/12/26 10:52:10;;;;;;;;;;;;;;;6.17;59.52;99361.53;4425393;32;20003;-89
2021/12/26 10:54:35;;;;;;;;;;;;;;;6.12;59.52;99363.31;4428420;32;20583;-89
2021/12/26 10:57:24;;;;;;;;;;;;;;;6.35;59.54;99366.28;4428137;32;20005;-90
2021/12/26 11:00:19;;;;;;;;;;;;;;;6.39;59.53;99364.50;4421988;32;19954;-89
2021/12/26 11:02:48;;;;;;;;;;;;;;;6.49;59.53;99360.84;4417900;32;20049;-90
2021/12/26 11:05:24;;;;;;;;;;;;;;;6.57;59.53;99360.66;4428119;32;20031;-90
2021/12/26 11:07:56;;;;;;;;;;;;;;;6.44;59.54;99354.91;4428233;32;20011;-90
2021/12/26 11:10:24;;;;;;;;;;;;;;;6.29;59.53;99360.41;4428165;32;19973;-90
2021/12/26 11:12:51;;;;;;;;;;;;;;;6.18;59.52;99365.81;4440773;32;19982;-88
2021/12/26 11:15:16;;;;;;;;;;;;;;;6.20;59.52;99360.59;4428112;32;19985;-89
2021/12/26 11:17:45;;;;;;;;;;;;;;;6.30;59.53;99354.34;4428321;32;20027;-90
2021/12/26 11:20:16;;;;;;;;;;;;;;;6.19;59.52;99353.72;4428292;32;19970;-90
2021/12/26 11:22:42;;;;;;;;;;;;;;;6.10;59.52;99353.03;4427573;32;19988;-90
2021/12/26 11:25:07;;;;;;;;;;;;;;;6.10;59.52;99358.19;4427537;32;20001;-88
2021/12/26 11:27:32;;;;;;;;;;;;;;;6.10;59.52;99365.09;4427474;32;19989;-87
2021/12/26 11:29:58;;;;;;;;;;;;;;;6.00;59.51;99358.41;4427509;32;20016;-88
2021/12/26 11:32:24;;;;;;;;;;;;;;;6.18;59.52;99352.87;4427306;32;20000;-87
2021/12/26 11:34:49;;;;;;;;;;;;;;;6.08;59.52;99353.94;4427539;32;20003;-87
2021/12/26 11:37:15;;;;;;;;;;;;;;;5.93;59.51;99359.44;4427688;32;20031;-89
2021/12/26 11:39:40;;;;;;;;;;;;;;;5.79;59.50;99357.91;4427541;32;20021;-89
2021/12/26 11:42:06;;;;;;;;;;;;;;;5.94;59.51;99363.72;4427842;32;20017;-89
2021/12/26 11:44:31;;;;;;;;;;;;;;;5.99;59.52;99361.88;4440643;32;20021;-89
2021/12/26 11:47:06;;;;;;;;;;;;;;;6.03;59.51;99373.84;4440635;32;20001;-89
2021/12/26 11:49:34;;;;;;;;;;;;;;;6.00;59.52;99376.50;4400131;32;884423;-89
2021/12/26 11:52:06;;;;;;;;;;;;;;;5.93;59.51;99378.34;4427942;32;20002;-89
2021/12/26 11:54:46;;;;;;;;;;;;;;;6.05;59.51;99383.28;4427794;32;20045;-89
2021/12/26 11:57:31;;;;;;;;;;;;;;;6.01;59.52;99376.47;4427663;32;20017;-89
2021/12/26 12:00:03;;;;;;;;;;;;;;;6.12;59.52;99374.50;4427757;32;19983;-89
2021/12/26 12:02:52;;;;;;;;;;;;;;;6.31;59.53;99377.56;4439998;32;20036;-88
2021/12/26 12:05:20;;;;;;;;;;;;;;;6.35;59.54;99375.78;4421104;32;20008;-88
2021/12/26 12:07:46;;;;;;;;;;;;;;;6.40;59.53;99379.12;4427523;32;19997;-88
2021/12/26 12:10:31;;;;;;;;;;;;;;;6.49;59.54;99383.25;4427094;32;20182;-88
2021/12/26 12:12:56;;;;;;;;;;;;;;;6.57;59.54;99383.94;4427283;32;19981;-90
2021/12/26 12:15:40;;;;;;;;;;;;;;;6.50;59.54;99385.81;4427500;32;20111;-89
2021/12/26 12:18:06;;;;;;;;;;;;;;;6.45;59.54;99385.91;4440025;32;20012;-89
2021/12/26 12:20:32;;;;;;;;;;;;;;;6.53;59.54;99384.88;4427217;32;20353;-89
2021/12/26 12:23:03;;;;;;;;;;;;;;;6.65;59.54;99388.06;4426885;32;19974;-88
2021/12/26 12:25:35;;;;;;;;;;;;;;;6.71;59.55;99381.91;4439977;32;19985;-89
2021/12/26 12:28:03;;;;;;;;;;;;;;;6.65;59.54;99374.28;4439348;32;20637;-88
2021/12/26 12:30:29;;;;;;;;;;;;;;;6.90;59.56;99374.59;4439043;32;19961;-88
2021/12/26 12:33:13;;;;;;;;;;;;;;;7.04;59.58;99373.34;4425998;32;22317;-88
2021/12/26 12:35:58;;;;;;;;;;;;;;;7.20;59.58;99363.50;4440138;32;19998;-88
2021/12/26 12:38:25;;;;;;;;;;;;;;;7.05;59.57;99366.44;4426672;32;20010;-88
2021/12/26 12:40:50;;;;;;;;;;;;;;;7.02;59.57;99363.94;4426987;32;19988;-89
2021/12/26 12:43:16;;;;;;;;;;;;;;;6.97;59.57;99361.47;4427425;32;19982;-88
2021/12/26 12:46:05;;;;;;;;;;;;;;;7.01;59.57;99351.88;4426264;32;19989;-88
2021/12/26 12:48:31;;;;;;;;;;;;;;;7.20;59.58;99345.37;4440054;32;20060;-88
2021/12/26 12:50:59;;;;;;;;;;;;;;;7.09;59.58;99343.03;4427146;32;19985;-89
2021/12/26 12:53:40;;;;;;;;;;;;;;;7.17;59.57;99337.69;4426920;32;20033;-88
2021/12/26 12:56:06;;;;;;;;;;;;;;;6.86;59.56;99341.88;4439744;32;20604;-88
2021/12/26 12:58:32;;;;;;;;;;;;;;;6.91;59.57;99340.06;4427142;32;20032;-88